createdAt,value
2019-03-24T00:01:43.702Z,18.13
2019-03-24T00:04:13.616Z,18.07
2019-03-24T00:06:43.504Z,17.30
2019-03-24T00:09:13.406Z,18.80
2019-03-24T00:11:43.333Z,18.73
2019-03-24T00:14:13.237Z,18.63
2019-03-24T00:16:43.157Z,16.20
2019-03-24T00:19:13.086Z,16.80
2019-03-24T00:21:43.458Z,16.80
2019-03-24T00:24:13.353Z,16.37
2019-03-24T00:26:43.339Z,16.40
2019-03-24T00:29:13.322Z,16.53
2019-03-24T00:31:43.194Z,17.13
2019-03-24T00:34:13.107Z,14.80
2019-03-24T00:36:43.059Z,14.53
2019-03-24T00:39:13.018Z,15.33
2019-03-24T00:41:42.930Z,16.70
2019-03-24T00:44:12.785Z,15.07
2019-03-24T00:46:42.825Z,14.60
2019-03-24T00:49:12.752Z,14.10
2019-03-24T00:51:42.646Z,13.13
2019-03-24T00:54:12.552Z,14.27
2019-03-24T00:56:42.469Z,12.77
2019-03-24T00:59:12.339Z,15.00
2019-03-24T01:01:42.224Z,14.27
2019-03-24T01:04:12.137Z,11.97
2019-03-24T01:06:42.001Z,12.97
2019-03-24T01:09:11.913Z,13.67
2019-03-24T01:11:41.999Z,15.43
2019-03-24T01:14:11.904Z,12.97
2019-03-24T01:16:41.850Z,16.17
2019-03-24T01:19:11.739Z,13.40
2019-03-24T01:21:41.636Z,16.57
2019-03-24T01:24:11.496Z,14.57
2019-03-24T01:26:41.396Z,15.20
2019-03-24T01:29:11.291Z,13.03
2019-03-24T01:31:41.206Z,16.80
2019-03-24T01:34:11.227Z,14.37
2019-03-24T01:36:41.100Z,15.00
2019-03-24T01:39:11.006Z,15.50
2019-03-24T01:41:40.897Z,17.83
2019-03-24T01:44:10.822Z,14.57
2019-03-24T01:46:40.705Z,14.97
2019-03-24T01:49:10.639Z,16.07
2019-03-24T01:51:40.691Z,16.37
2019-03-24T01:54:10.578Z,13.77
2019-03-24T01:56:40.479Z,13.33
2019-03-24T01:59:10.372Z,18.20
2019-03-24T02:01:40.252Z,15.33
2019-03-24T02:04:10.160Z,17.00
2019-03-24T02:06:40.084Z,16.07
2019-03-24T02:09:10.742Z,13.73
2019-03-24T02:11:40.624Z,16.97
2019-03-24T02:14:10.509Z,12.90
2019-03-24T02:16:40.412Z,13.60
2019-03-24T02:19:10.308Z,13.37
2019-03-24T02:21:40.195Z,14.23
2019-03-24T02:24:10.209Z,12.40
2019-03-24T02:26:40.099Z,12.60
2019-03-24T02:29:09.997Z,12.33
2019-03-24T02:31:39.903Z,13.23
2019-03-24T02:34:09.873Z,14.97
2019-03-24T02:36:39.738Z,12.23
2019-03-24T02:39:09.675Z,14.70
2019-03-24T02:41:39.657Z,15.27
2019-03-24T02:44:09.562Z,13.00
2019-03-24T02:46:39.473Z,14.43
2019-03-24T02:49:09.389Z,13.37
2019-03-24T02:51:39.305Z,14.97
2019-03-24T02:54:09.216Z,14.90
2019-03-24T02:56:39.111Z,15.83
2019-03-24T02:59:09.221Z,12.77
2019-03-24T03:01:39.145Z,15.43
2019-03-24T03:04:09.034Z,14.37
2019-03-24T03:06:38.895Z,16.60
2019-03-24T03:09:08.935Z,19.23
2019-03-24T03:11:38.915Z,16.03
2019-03-24T03:14:08.885Z,17.00
2019-03-24T03:16:39.443Z,15.00
2019-03-24T03:19:09.514Z,16.40
2019-03-24T03:21:39.522Z,15.37
2019-03-24T03:24:09.412Z,16.17
2019-03-24T03:26:39.308Z,16.27
2019-03-24T03:29:09.281Z,17.10
2019-03-24T03:31:39.274Z,15.27
2019-03-24T03:34:09.211Z,17.27
2019-03-24T03:36:39.108Z,16.57
2019-03-24T03:39:09.142Z,17.17
2019-03-24T03:41:39.728Z,15.67
2019-03-24T03:44:09.807Z,18.40
2019-03-24T03:46:51.898Z,25.83
2019-03-24T03:49:11.384Z,20.03
2019-03-24T03:51:41.261Z,17.30
2019-03-24T03:54:11.310Z,18.67
2019-03-24T03:56:41.170Z,17.30
2019-03-24T03:59:11.075Z,19.30
2019-03-24T04:01:41.327Z,20.90
2019-03-24T04:04:11.187Z,17.07
2019-03-24T04:06:41.080Z,19.07
2019-03-24T04:09:11.052Z,19.47
2019-03-24T04:11:40.933Z,18.67
2019-03-24T04:14:10.879Z,19.13
2019-03-24T04:16:40.795Z,18.60
2019-03-24T04:19:10.762Z,20.33
2019-03-24T04:21:40.675Z,19.30
2019-03-24T04:24:10.580Z,18.60
2019-03-24T04:26:40.470Z,19.60
2019-03-24T04:29:10.389Z,19.67
2019-03-24T04:31:40.361Z,24.40
2019-03-24T04:34:10.315Z,22.73
2019-03-24T04:36:40.216Z,20.13
2019-03-24T04:39:10.090Z,21.40
2019-03-24T04:41:39.991Z,18.77
2019-03-24T04:44:09.966Z,21.00
2019-03-24T04:46:39.881Z,26.77
2019-03-24T04:49:09.790Z,25.70
2019-03-24T04:51:39.731Z,21.10
2019-03-24T04:54:09.663Z,26.37
2019-03-24T04:56:39.577Z,21.70
2019-03-24T04:59:09.469Z,24.10
2019-03-24T05:01:39.353Z,20.60
2019-03-24T05:04:09.230Z,19.97
2019-03-24T05:06:39.614Z,22.00
2019-03-24T05:09:09.490Z,22.43
2019-03-24T05:11:39.553Z,21.20
2019-03-24T05:14:09.555Z,22.63
2019-03-24T05:16:39.465Z,21.00
2019-03-24T05:19:09.369Z,23.33
2019-03-24T05:21:39.282Z,23.07
2019-03-24T05:24:09.199Z,23.27
2019-03-24T05:26:39.141Z,19.27
2019-03-24T05:29:09.063Z,27.43
2019-03-24T05:31:38.951Z,21.90
2019-03-24T05:34:08.868Z,22.57
2019-03-24T05:36:38.746Z,24.63
2019-03-24T05:39:08.894Z,22.53
2019-03-24T05:41:38.844Z,24.07
2019-03-24T05:44:08.747Z,20.07
2019-03-24T05:46:38.612Z,22.50
2019-03-24T05:49:08.636Z,19.07
2019-03-24T05:51:38.515Z,19.27
2019-03-24T05:54:08.390Z,20.87
2019-03-24T05:56:38.300Z,20.10
2019-03-24T05:59:08.175Z,20.97
2019-03-24T06:01:38.096Z,22.93
2019-03-24T06:04:07.983Z,23.70
2019-03-24T06:06:37.907Z,26.33
2019-03-24T06:09:08.250Z,27.33
2019-03-24T06:11:38.177Z,21.33
2019-03-24T06:14:08.216Z,23.80
2019-03-24T06:16:38.127Z,22.57
2019-03-24T06:19:08.076Z,25.33
2019-03-24T06:21:37.992Z,25.27
2019-03-24T06:24:07.895Z,24.87
2019-03-24T06:26:37.882Z,25.30
2019-03-24T06:29:07.791Z,24.27
2019-03-24T06:31:37.707Z,23.40
2019-03-24T06:34:07.737Z,22.90
2019-03-24T06:36:37.685Z,23.50
2019-03-24T06:39:08.486Z,21.23
2019-03-24T06:41:38.404Z,21.73
2019-03-24T06:44:08.296Z,20.93
2019-03-24T06:46:38.199Z,20.00
2019-03-24T06:49:08.101Z,22.50
2019-03-24T06:51:38.061Z,23.53
2019-03-24T06:54:08.031Z,21.67
2019-03-24T06:56:37.923Z,25.50
2019-03-24T06:59:07.901Z,22.47
2019-03-24T07:01:40.619Z,21.43
2019-03-24T07:04:10.693Z,21.23
2019-03-24T07:06:40.635Z,20.00
2019-03-24T07:09:10.606Z,21.70
2019-03-24T07:11:40.612Z,24.40
2019-03-24T07:14:10.529Z,21.47
2019-03-24T07:16:40.455Z,20.50
2019-03-24T07:19:10.433Z,20.97
2019-03-24T07:21:40.379Z,21.10
2019-03-24T07:24:10.263Z,20.67
2019-03-24T07:26:40.142Z,20.77
2019-03-24T07:29:10.080Z,20.30
2019-03-24T07:31:40.000Z,21.73
2019-03-24T07:34:09.893Z,21.20
2019-03-24T07:36:39.814Z,21.80
2019-03-24T07:39:09.735Z,20.57
2019-03-24T07:41:39.640Z,23.73
2019-03-24T07:44:09.524Z,23.20
2019-03-24T07:46:39.435Z,20.40
2019-03-24T07:49:09.335Z,21.10
2019-03-24T07:51:39.231Z,20.60
2019-03-24T07:54:09.144Z,20.57
2019-03-24T07:56:39.521Z,19.60
2019-03-24T07:59:09.443Z,19.43
2019-03-24T08:01:39.479Z,18.73
2019-03-24T08:04:09.478Z,19.03
2019-03-24T08:06:39.392Z,19.73
2019-03-24T08:09:09.316Z,20.90
2019-03-24T08:11:39.231Z,23.57
2019-03-24T08:14:09.151Z,23.23
2019-03-24T08:16:39.100Z,21.80
2019-03-24T08:19:09.045Z,21.17
2019-03-24T08:21:39.046Z,21.62
2019-03-24T08:24:08.958Z,23.02
2019-03-24T08:26:38.861Z,20.72
2019-03-24T08:29:08.924Z,21.05
2019-03-24T08:31:38.822Z,21.52
2019-03-24T08:34:08.705Z,19.62
2019-03-24T08:36:38.668Z,20.88
2019-03-24T08:39:08.677Z,21.55
2019-03-24T08:41:38.835Z,23.62
2019-03-24T08:44:08.763Z,23.35
2019-03-24T08:46:38.666Z,20.77
2019-03-24T08:49:08.725Z,21.07
2019-03-24T08:51:38.652Z,25.55
2019-03-24T08:54:08.565Z,20.77
2019-03-24T08:56:38.480Z,21.02
2019-03-24T08:59:08.410Z,21.33
2019-03-24T09:01:38.336Z,21.77
2019-03-24T09:04:09.988Z,21.90
2019-03-24T09:06:39.919Z,20.77
2019-03-24T09:09:09.843Z,29.12
2019-03-24T09:11:39.751Z,21.12
2019-03-24T09:14:09.692Z,20.48
2019-03-24T09:16:39.624Z,19.92
2019-03-24T09:19:09.646Z,18.55
2019-03-24T09:21:39.542Z,18.50
2019-03-24T09:24:09.420Z,18.87
2019-03-24T09:26:39.331Z,18.57
2019-03-24T09:29:09.287Z,17.17
2019-03-24T09:31:39.172Z,18.07
2019-03-24T09:34:09.083Z,19.17
2019-03-24T09:36:38.993Z,17.57
2019-03-24T09:39:09.055Z,17.37
2019-03-24T09:41:39.072Z,17.00
2019-03-24T09:44:09.000Z,17.92
2019-03-24T09:46:39.976Z,18.35
2019-03-24T09:49:09.876Z,19.02
2019-03-24T09:51:39.792Z,17.92
2019-03-24T09:54:09.806Z,17.48
2019-03-24T09:56:39.751Z,16.80
2019-03-24T09:59:09.833Z,16.10
2019-03-24T10:01:39.726Z,15.68
2019-03-24T10:04:09.624Z,18.62
2019-03-24T10:06:39.792Z,16.82
2019-03-24T10:09:09.760Z,16.62
2019-03-24T10:11:39.637Z,18.05
2019-03-24T10:14:09.595Z,16.87
2019-03-24T10:16:40.038Z,17.35
2019-03-24T10:19:14.227Z,30.20
2019-03-24T10:21:41.777Z,16.35
2019-03-24T10:24:11.687Z,16.73
2019-03-24T10:26:41.643Z,16.87
2019-03-24T10:29:11.548Z,15.85
2019-03-24T10:31:42.700Z,16.32
2019-03-24T10:34:13.200Z,16.80
2019-03-24T10:36:43.109Z,16.45
2019-03-24T10:39:13.989Z,15.30
2019-03-24T10:41:45.114Z,16.10
2019-03-24T10:44:15.046Z,16.17
2019-03-24T10:46:44.985Z,15.08
2019-03-24T10:49:24.430Z,14.83
2019-03-24T10:51:47.503Z,15.08
2019-03-24T10:54:17.469Z,14.40
2019-03-24T10:56:47.447Z,14.30
2019-03-24T10:59:17.415Z,13.80
2019-03-24T11:01:47.377Z,13.78
2019-03-24T11:04:17.445Z,13.13
2019-03-24T11:06:47.429Z,14.13
2019-03-24T11:09:17.496Z,13.88
2019-03-24T11:11:47.500Z,13.25
2019-03-24T11:14:17.391Z,13.98
2019-03-24T11:16:47.776Z,15.38
2019-03-24T11:19:17.758Z,14.00
2019-03-24T11:21:48.985Z,12.65
2019-03-24T11:24:18.908Z,14.20
2019-03-24T11:26:48.828Z,13.08
2019-03-24T11:29:20.159Z,16.50
2019-03-24T11:31:52.585Z,13.78
2019-03-24T11:34:23.439Z,13.88
2019-03-24T11:36:54.168Z,12.25
2019-03-24T11:39:24.064Z,11.80
2019-03-24T11:41:54.071Z,13.58
2019-03-24T11:44:24.016Z,12.28
2019-03-24T11:46:54.539Z,12.30
2019-03-24T11:49:24.429Z,11.35
2019-03-24T11:51:54.777Z,12.07
2019-03-24T11:54:25.185Z,12.03
2019-03-24T11:56:55.377Z,12.20
2019-03-24T11:59:25.730Z,11.90
2019-03-24T12:01:56.780Z,12.10
2019-03-24T12:04:26.693Z,12.73
2019-03-24T12:06:56.679Z,12.60
2019-03-24T12:09:27.065Z,12.15
2019-03-24T12:11:57.085Z,12.40
2019-03-24T12:14:27.005Z,12.37
2019-03-24T12:16:56.901Z,11.93
2019-03-24T12:19:29.291Z,11.55
2019-03-24T12:21:59.671Z,11.28
2019-03-24T12:24:29.971Z,11.75
2019-03-24T12:27:00.245Z,12.28
2019-03-24T12:29:30.156Z,11.43
2019-03-24T12:32:00.334Z,11.12
2019-03-24T12:34:30.278Z,11.25
2019-03-24T12:37:00.276Z,12.33
2019-03-24T12:39:30.194Z,11.93
2019-03-24T12:42:00.387Z,11.53
2019-03-24T12:44:31.416Z,11.80
2019-03-24T12:47:01.448Z,11.68
2019-03-24T12:49:31.418Z,11.25
2019-03-24T12:52:01.340Z,10.90
2019-03-24T12:54:31.852Z,12.95
2019-03-24T12:57:02.283Z,11.88
2019-03-24T12:59:32.200Z,16.57
2019-03-24T13:02:02.146Z,11.75
2019-03-24T13:04:32.050Z,11.33
2019-03-24T13:07:01.994Z,11.12
2019-03-24T13:09:33.661Z,11.53
2019-03-24T13:12:04.634Z,12.07
2019-03-24T13:14:34.598Z,11.07
2019-03-24T13:17:04.529Z,10.70
2019-03-24T13:19:36.135Z,10.47
2019-03-24T13:22:06.209Z,10.17
2019-03-24T13:24:36.706Z,11.27
2019-03-24T13:27:06.618Z,11.73
2019-03-24T13:29:36.633Z,11.63
2019-03-24T13:32:06.549Z,13.23
2019-03-24T13:34:36.464Z,10.80
2019-03-24T13:37:06.410Z,10.50
2019-03-24T13:39:36.272Z,11.33
2019-03-24T13:42:06.229Z,10.40
2019-03-24T13:44:36.147Z,11.23
2019-03-24T13:47:06.044Z,11.07
2019-03-24T13:49:35.982Z,11.87
2019-03-24T13:52:05.881Z,14.30
2019-03-24T13:54:35.755Z,10.27
2019-03-24T13:57:05.637Z,13.17
2019-03-24T13:59:35.571Z,13.50
2019-03-24T14:02:05.816Z,10.57
2019-03-24T14:04:36.039Z,10.40
2019-03-24T14:07:06.050Z,11.10
2019-03-24T14:09:35.968Z,10.43
2019-03-24T14:12:05.994Z,10.63
2019-03-24T14:14:35.951Z,10.67
2019-03-24T14:17:05.855Z,10.23
2019-03-24T14:19:35.748Z,9.70
2019-03-24T14:22:05.984Z,10.17
2019-03-24T14:24:35.898Z,9.73
2019-03-24T14:27:05.824Z,10.37
2019-03-24T14:29:35.721Z,13.13
2019-03-24T14:32:05.694Z,11.23
2019-03-24T14:34:35.625Z,9.13
2019-03-24T14:37:05.676Z,11.87
2019-03-24T14:39:35.549Z,9.67
2019-03-24T14:42:05.580Z,10.13
2019-03-24T14:44:35.780Z,9.73
2019-03-24T14:47:05.818Z,9.50
2019-03-24T14:49:35.712Z,10.40
2019-03-24T14:52:05.633Z,12.07
2019-03-24T14:54:35.536Z,10.17
2019-03-24T14:57:05.567Z,9.33
2019-03-24T14:59:35.475Z,15.23
2019-03-24T15:02:06.401Z,10.97
2019-03-24T15:04:36.331Z,11.00
2019-03-24T15:07:06.223Z,10.10
2019-03-24T15:09:36.145Z,9.80
2019-03-24T15:12:06.415Z,10.10
2019-03-24T15:14:36.338Z,10.97
2019-03-24T15:17:06.437Z,11.70
2019-03-24T15:19:36.354Z,11.67
2019-03-24T15:22:06.278Z,10.87
2019-03-24T15:24:36.198Z,10.57
2019-03-24T15:27:06.125Z,11.07
2019-03-24T15:29:36.043Z,8.93
2019-03-24T15:32:05.972Z,12.70
2019-03-24T15:34:35.853Z,9.87
2019-03-24T15:37:05.915Z,10.17
2019-03-24T15:39:35.803Z,8.77
2019-03-24T15:42:05.783Z,9.93
2019-03-24T15:44:35.761Z,9.17
2019-03-24T15:47:05.805Z,9.03
2019-03-24T15:49:35.706Z,12.07
2019-03-24T15:52:05.692Z,8.93
2019-03-24T15:54:35.599Z,8.73
2019-03-24T15:57:05.461Z,9.50
2019-03-24T15:59:35.388Z,8.27
2019-03-24T16:02:05.311Z,10.53
2019-03-24T16:04:35.261Z,11.93
2019-03-24T16:07:05.238Z,12.40
2019-03-24T16:09:35.136Z,13.87
2019-03-24T16:12:05.039Z,13.67
2019-03-24T16:14:34.962Z,10.47
2019-03-24T16:17:04.995Z,16.93
2019-03-24T16:19:34.930Z,14.00
2019-03-24T16:22:04.888Z,17.37
2019-03-24T16:24:35.168Z,19.93
2019-03-24T16:27:05.047Z,21.83
2019-03-24T16:29:34.981Z,15.63
2019-03-24T16:32:04.963Z,17.87
2019-03-24T16:34:34.855Z,18.07
2019-03-24T16:37:04.744Z,16.67
2019-03-24T16:39:34.648Z,12.80
2019-03-24T16:42:04.535Z,12.27
2019-03-24T16:44:34.449Z,13.37
2019-03-24T16:47:04.368Z,22.27
2019-03-24T16:49:34.257Z,24.13
2019-03-24T16:52:04.211Z,26.10
2019-03-24T16:54:34.279Z,23.27
2019-03-24T16:57:04.517Z,21.73
2019-03-24T16:59:34.202Z,21.30
2019-03-24T17:02:04.110Z,23.90
2019-03-24T17:04:34.017Z,20.20
2019-03-24T17:07:04.054Z,24.00
2019-03-24T17:09:34.005Z,27.43
2019-03-24T17:12:03.928Z,25.57
2019-03-24T17:14:34.006Z,25.23
2019-03-24T17:17:03.942Z,30.80
2019-03-24T17:19:33.850Z,26.60
2019-03-24T17:22:03.783Z,18.73
2019-03-24T17:24:33.667Z,22.47
2019-03-24T17:27:03.568Z,20.67
2019-03-24T17:29:33.532Z,18.20
2019-03-24T17:32:03.480Z,16.30
2019-03-24T17:34:33.438Z,14.83
2019-03-24T17:37:03.481Z,16.97
2019-03-24T17:39:33.410Z,18.13
2019-03-24T17:42:03.407Z,23.77
2019-03-24T17:44:33.336Z,14.67
2019-03-24T17:47:03.370Z,12.30
2019-03-24T17:49:33.271Z,11.63
2019-03-24T17:52:03.272Z,11.03
2019-03-24T17:54:33.150Z,10.93
2019-03-24T17:57:03.140Z,9.63
2019-03-24T17:59:33.044Z,10.33
2019-03-24T18:02:10.055Z,9.37
2019-03-24T18:04:34.584Z,9.80
2019-03-24T18:07:04.535Z,10.87
2019-03-24T18:09:34.516Z,15.47
2019-03-24T18:12:04.446Z,12.87
2019-03-24T18:14:34.347Z,15.43
2019-03-24T18:17:06.151Z,12.93
2019-03-24T18:19:36.067Z,14.00
2019-03-24T18:22:11.586Z,11.83
2019-03-24T18:24:37.963Z,15.30
2019-03-24T18:27:07.855Z,14.70
2019-03-24T18:29:37.814Z,13.53
2019-03-24T18:32:07.836Z,16.40
2019-03-24T18:34:38.273Z,15.23
2019-03-24T18:37:08.302Z,16.83
2019-03-24T18:39:38.204Z,14.43
2019-03-24T18:42:10.394Z,13.63
2019-03-24T18:44:40.347Z,14.07
2019-03-24T18:47:10.310Z,13.50
2019-03-24T18:49:40.017Z,14.03
2019-03-24T18:52:22.348Z,19.67
2019-03-24T18:54:47.023Z,18.77
2019-03-24T18:57:18.092Z,13.10
2019-03-24T18:59:48.925Z,18.60
2019-03-24T19:02:18.829Z,21.37
2019-03-24T19:04:48.731Z,20.77
2019-03-24T19:07:18.635Z,26.07
2019-03-24T19:09:48.608Z,27.50
2019-03-24T19:12:18.484Z,26.03
2019-03-24T19:14:48.505Z,27.30
2019-03-24T19:17:18.454Z,32.53
2019-03-24T19:19:48.395Z,33.67
2019-03-24T19:22:18.363Z,42.40
2019-03-24T19:24:48.295Z,49.17
2019-03-24T19:27:18.205Z,51.33
2019-03-24T19:29:48.181Z,39.40
2019-03-24T19:32:18.149Z,42.07
2019-03-24T19:34:48.107Z,43.50
2019-03-24T19:37:18.472Z,50.07
2019-03-24T19:39:50.086Z,49.23
2019-03-24T19:42:20.058Z,50.60
2019-03-24T19:44:50.039Z,41.63
2019-03-24T19:47:19.968Z,42.33
2019-03-24T19:49:49.915Z,56.23
2019-03-24T19:52:19.861Z,49.97
2019-03-24T19:54:49.786Z,46.27
2019-03-24T19:57:19.676Z,44.53
2019-03-24T19:59:49.614Z,34.57
2019-03-24T20:02:19.599Z,37.90
2019-03-24T20:04:51.262Z,43.60
2019-03-24T20:07:21.187Z,47.87
2019-03-24T20:09:51.252Z,46.80
2019-03-24T20:12:21.447Z,57.93
2019-03-24T20:14:51.510Z,46.23
2019-03-24T20:17:22.646Z,50.17
2019-03-24T20:19:52.652Z,44.03
2019-03-24T20:22:22.684Z,52.70
2019-03-24T20:24:52.795Z,53.93
2019-03-24T20:27:22.738Z,51.13
2019-03-24T20:29:52.729Z,54.73
2019-03-24T20:32:22.658Z,50.13
2019-03-24T20:34:52.551Z,54.17
2019-03-24T20:37:22.614Z,58.43
2019-03-24T20:39:52.682Z,61.07
2019-03-24T20:42:22.598Z,64.27
2019-03-24T20:44:52.501Z,41.83
2019-03-24T20:47:24.432Z,58.77
2019-03-24T20:49:54.431Z,61.30
2019-03-24T20:52:24.485Z,55.90
2019-03-24T20:54:54.394Z,55.10
2019-03-24T20:57:24.337Z,49.60
2019-03-24T20:59:54.844Z,51.30
2019-03-24T21:02:24.749Z,50.90
2019-03-24T21:04:54.645Z,55.17
2019-03-24T21:07:24.519Z,58.10
2019-03-24T21:09:54.526Z,57.80
2019-03-24T21:12:24.449Z,63.00
2019-03-24T21:14:54.389Z,53.03
2019-03-24T21:17:24.318Z,27.30
2019-03-24T21:19:54.234Z,23.93
2019-03-24T21:22:24.196Z,26.10
2019-03-24T21:24:54.115Z,43.00
2019-03-24T21:27:24.053Z,40.93
2019-03-24T21:29:54.170Z,40.93
2019-03-24T21:32:24.080Z,45.37
2019-03-24T21:34:54.072Z,44.73
2019-03-24T21:37:24.103Z,40.40
2019-03-24T21:39:54.079Z,40.40
2019-03-24T21:42:23.996Z,40.23
2019-03-24T21:44:53.987Z,36.90
2019-03-24T21:47:24.131Z,40.43
2019-03-24T21:49:54.081Z,34.57
2019-03-24T21:52:24.006Z,36.83
2019-03-24T21:54:53.942Z,37.47
2019-03-24T21:57:24.318Z,33.83
2019-03-24T21:59:54.198Z,37.63
2019-03-24T22:02:24.534Z,32.47
2019-03-24T22:04:56.006Z,27.80
2019-03-24T22:07:26.047Z,26.33
2019-03-24T22:09:56.110Z,27.60
2019-03-24T22:12:26.087Z,29.27
2019-03-24T22:14:56.172Z,29.93
2019-03-24T22:17:26.111Z,30.80
2019-03-24T22:19:56.068Z,29.77
2019-03-24T22:22:26.023Z,30.97
2019-03-24T22:24:55.908Z,25.17
2019-03-24T22:27:25.861Z,26.93
2019-03-24T22:29:55.823Z,22.27
2019-03-24T22:32:25.754Z,19.83
2019-03-24T22:34:55.675Z,22.50
2019-03-24T22:37:25.632Z,24.50
2019-03-24T22:39:55.608Z,23.67
2019-03-24T22:42:25.505Z,21.97
2019-03-24T22:44:55.458Z,23.57
2019-03-24T22:47:25.395Z,24.40
2019-03-24T22:49:55.383Z,26.40
2019-03-24T22:52:25.355Z,26.63
2019-03-24T22:54:55.209Z,25.20
2019-03-24T22:57:25.108Z,26.77
2019-03-24T22:59:55.066Z,24.17
2019-03-24T23:02:25.004Z,30.30
2019-03-24T23:05:03.946Z,27.33
2019-03-24T23:07:47.917Z,31.70
2019-03-24T23:10:17.916Z,31.87
2019-03-24T23:12:47.934Z,34.10
2019-03-24T23:15:18.022Z,42.67
2019-03-24T23:17:47.937Z,39.20
2019-03-24T23:20:17.834Z,31.63
2019-03-24T23:22:47.751Z,37.23
2019-03-24T23:25:17.647Z,34.83
2019-03-24T23:27:47.583Z,38.00
2019-03-24T23:30:18.332Z,36.10
2019-03-24T23:32:48.378Z,39.70
2019-03-24T23:35:18.414Z,40.30
2019-03-24T23:37:48.271Z,38.40
2019-03-24T23:40:18.290Z,33.13
2019-03-24T23:42:48.199Z,35.23
2019-03-24T23:45:18.106Z,34.20
2019-03-24T23:47:48.039Z,31.43
2019-03-24T23:50:17.944Z,20.80
2019-03-24T23:52:47.976Z,30.77
2019-03-24T23:55:17.890Z,33.77
2019-03-24T23:57:47.784Z,35.53
